Time;durP1;ratioP1;P1;durP2;ratioP2;P2;SDS_P1;SDS_P2;PMS_P1;PMS_P2;Temp;Humidity;BMP_temperature;BMP_pressure;BME280_temperature;BME280_humidity;BME280_pressure;Samples;Min_cycle;Max_cycle;Signal;HPM_P1;HPM_P2
2023/01/26 00:00:48;;;;;;;39.40;15.88;;;;;;;;;;5011927;28;20382;-70
2023/01/26 00:03:14;;;;;;;35.45;14.63;;;;;;;;;;5011882;28;20347;-70
2023/01/26 00:05:41;;;;;;;37.80;13.98;;;;;;;;;;5011981;28;20037;-70
2023/01/26 00:08:07;;;;;;;35.30;14.20;;;;;;;;;;5011806;28;20537;-70
2023/01/26 00:10:37;;;;;;;25.25;13.60;;;;;;;;;;5011663;28;20053;-72
2023/01/26 00:13:03;;;;;;;32.63;14.80;;;;;;;;;;5011740;28;20093;-70
2023/01/26 00:15:32;;;;;;;31.33;13.80;;;;;;;;;;5011882;28;20038;-71
2023/01/26 00:17:58;;;;;;;32.50;13.23;;;;;;;;;;5011526;28;20037;-71
2023/01/26 00:20:24;;;;;;;33.25;13.75;;;;;;;;;;5011755;28;20093;-70
2023/01/26 00:22:50;;;;;;;29.27;12.93;;;;;;;;;;5011416;28;20029;-71
2023/01/26 00:25:17;;;;;;;23.35;12.80;;;;;;;;;;5011529;28;20061;-71
2023/01/26 00:27:43;;;;;;;29.10;13.25;;;;;;;;;;5011555;28;20017;-71
2023/01/26 00:30:09;;;;;;;30.75;12.60;;;;;;;;;;4994167;28;20030;-70
2023/01/26 00:32:35;;;;;;;25.80;11.10;;;;;;;;;;5011455;28;20022;-71
2023/01/26 00:35:02;;;;;;;21.90;9.80;;;;;;;;;;5011577;28;20582;-72
2023/01/26 00:37:28;;;;;;;19.58;7.07;;;;;;;;;;5011571;28;20036;-72
2023/01/26 00:39:54;;;;;;;21.80;7.55;;;;;;;;;;5011417;28;20042;-71
2023/01/26 00:42:21;;;;;;;16.42;7.07;;;;;;;;;;5011613;28;20022;-72
2023/01/26 00:44:47;;;;;;;22.58;7.80;;;;;;;;;;5011528;28;20022;-69
2023/01/26 00:47:14;;;;;;;20.08;7.85;;;;;;;;;;5011989;28;20022;-71
2023/01/26 00:49:40;;;;;;;23.48;6.03;;;;;;;;;;5011779;28;20049;-71
2023/01/26 00:52:06;;;;;;;17.13;5.75;;;;;;;;;;5011533;28;20097;-71
2023/01/26 00:54:32;;;;;;;14.48;5.63;;;;;;;;;;5011592;28;20398;-71
2023/01/26 00:56:58;;;;;;;19.00;5.70;;;;;;;;;;5011608;28;20057;-72
2023/01/26 00:59:25;;;;;;;17.08;6.65;;;;;;;;;;5011152;28;20755;-71
2023/01/26 01:01:52;;;;;;;11.05;5.13;;;;;;;;;;4993662;28;20070;-71
2023/01/26 01:04:18;;;;;;;16.20;5.35;;;;;;;;;;4993703;28;20560;-72
2023/01/26 01:06:44;;;;;;;17.77;4.90;;;;;;;;;;5011389;28;20033;-71
2023/01/26 01:09:10;;;;;;;14.43;5.00;;;;;;;;;;5011161;28;20026;-71
2023/01/26 01:11:36;;;;;;;18.27;6.22;;;;;;;;;;5011123;28;20030;-72
2023/01/26 01:14:02;;;;;;;14.93;5.25;;;;;;;;;;5011594;28;20163;-72
2023/01/26 01:16:28;;;;;;;16.58;5.63;;;;;;;;;;5011373;28;20022;-72
2023/01/26 01:18:57;;;;;;;12.07;5.07;;;;;;;;;;4993349;28;20096;-72
2023/01/26 01:21:24;;;;;;;12.10;4.63;;;;;;;;;;5011055;28;20034;-71
2023/01/26 01:23:50;;;;;;;16.25;4.22;;;;;;;;;;5011205;28;20068;-72
2023/01/26 01:26:16;;;;;;;18.40;4.03;;;;;;;;;;5011211;28;20037;-72
2023/01/26 01:28:43;;;;;;;12.23;3.42;;;;;;;;;;5011026;28;20061;-72
2023/01/26 01:31:13;;;;;;;12.23;3.50;;;;;;;;;;5011087;28;20088;-71
2023/01/26 01:33:40;;;;;;;11.98;3.85;;;;;;;;;;5011769;28;20028;-72
2023/01/26 01:36:07;;;;;;;23.70;4.35;;;;;;;;;;5015143;28;20433;-72
2023/01/26 01:38:33;;;;;;;13.02;2.90;;;;;;;;;;5014645;28;20567;-73
2023/01/26 01:40:59;;;;;;;13.57;3.63;;;;;;;;;;5014980;28;20022;-72
2023/01/26 01:43:26;;;;;;;12.60;3.25;;;;;;;;;;5016517;28;20033;-72
2023/01/26 01:45:52;;;;;;;10.85;3.58;;;;;;;;;;5015155;28;20125;-72
2023/01/26 01:48:22;;;;;;;9.73;3.20;;;;;;;;;;4998141;28;20034;-73
2023/01/26 01:50:49;;;;;;;7.32;3.03;;;;;;;;;;5015314;28;20053;-72
2023/01/26 01:53:18;;;;;;;11.38;3.22;;;;;;;;;;5018035;28;20050;-72
2023/01/26 01:55:45;;;;;;;11.35;4.03;;;;;;;;;;5019191;28;20033;-73
2023/01/26 01:58:11;;;;;;;9.25;3.17;;;;;;;;;;5016451;28;20057;-72
2023/01/26 02:00:37;;;;;;;10.52;2.85;;;;;;;;;;5014549;28;20030;-73
2023/01/26 02:03:13;;;;;;;13.43;3.45;;;;;;;;;;4996716;28;20018;-74
2023/01/26 02:05:47;;;;;;;13.30;3.45;;;;;;;;;;5014232;28;20080;-73
2023/01/26 02:08:15;;;;;;;13.80;2.88;;;;;;;;;;5014204;28;20114;-74
2023/01/26 02:10:43;;;;;;;8.45;3.25;;;;;;;;;;5013895;28;20033;-73
2023/01/26 02:13:09;;;;;;;11.18;3.50;;;;;;;;;;5014320;28;20022;-74
2023/01/26 02:15:35;;;;;;;11.48;2.88;;;;;;;;;;5014117;28;20054;-74
2023/01/26 02:18:03;;;;;;;8.60;3.60;;;;;;;;;;5013872;28;20029;-73
2023/01/26 02:20:36;;;;;;;7.20;2.90;;;;;;;;;;5014065;28;20026;-74
2023/01/26 02:23:25;;;;;;;10.75;2.95;;;;;;;;;;5013852;28;20076;-74
2023/01/26 02:25:51;;;;;;;9.75;2.72;;;;;;;;;;5013848;28;20471;-73
2023/01/26 02:28:18;;;;;;;14.38;3.03;;;;;;;;;;5013897;28;20026;-75
2023/01/26 02:30:45;;;;;;;8.25;2.75;;;;;;;;;;5013976;28;20080;-74
2023/01/26 02:33:14;;;;;;;5.93;2.45;;;;;;;;;;5013484;28;20125;-75
2023/01/26 02:35:40;;;;;;;10.10;3.28;;;;;;;;;;5013615;28;20105;-75
2023/01/26 02:38:07;;;;;;;9.10;2.80;;;;;;;;;;5013215;28;20034;-73
2023/01/26 02:40:54;;;;;;;14.60;2.88;;;;;;;;;;5013753;28;20030;-74
2023/01/26 02:43:20;;;;;;;11.18;3.60;;;;;;;;;;5013404;28;20494;-74
2023/01/26 02:45:46;;;;;;;9.00;2.38;;;;;;;;;;4994466;28;20026;-74
2023/01/26 02:48:12;;;;;;;10.75;3.70;;;;;;;;;;5013530;28;20033;-74
2023/01/26 02:50:38;;;;;;;16.15;2.95;;;;;;;;;;4995724;28;20030;-74
2023/01/26 02:53:04;;;;;;;13.75;3.00;;;;;;;;;;4995640;28;20581;-75
2023/01/26 02:55:31;;;;;;;16.25;2.67;;;;;;;;;;5013363;28;20048;-75
2023/01/26 02:58:01;;;;;;;8.82;2.28;;;;;;;;;;5013035;28;20467;-75
2023/01/26 03:00:29;;;;;;;11.77;2.97;;;;;;;;;;5013382;28;20038;-75
2023/01/26 03:02:56;;;;;;;11.15;2.28;;;;;;;;;;5013270;28;20022;-75
2023/01/26 03:05:22;;;;;;;13.45;2.60;;;;;;;;;;5012913;28;20053;-75
2023/01/26 03:07:48;;;;;;;9.48;2.17;;;;;;;;;;5013145;28;20032;-75
2023/01/26 03:10:17;;;;;;;8.32;1.80;;;;;;;;;;5012778;28;20412;-74
2023/01/26 03:12:44;;;;;;;9.90;2.13;;;;;;;;;;5013152;28;20030;-74
2023/01/26 03:29:03;;;;;;;14.23;2.58;;;;;;;;;;5012768;28;20040;-75
2023/01/26 03:31:29;;;;;;;17.52;2.60;;;;;;;;;;5012570;28;20026;-76
2023/01/26 03:33:56;;;;;;;11.38;2.80;;;;;;;;;;5013358;28;20025;-76
2023/01/26 03:36:22;;;;;;;12.10;2.67;;;;;;;;;;5013342;28;20021;-76
2023/01/26 03:38:48;;;;;;;10.77;2.95;;;;;;;;;;4994318;28;20053;-77
2023/01/26 03:57:41;;;;;;;14.07;3.58;;;;;;;;;;5012053;28;20135;-76
2023/01/26 04:00:08;;;;;;;13.77;3.28;;;;;;;;;;5012109;28;20097;-77
2023/01/26 04:08:23;;;;;;;13.10;3.25;;;;;;;;;;5012006;28;20418;-76
2023/01/26 04:10:50;;;;;;;23.42;4.03;;;;;;;;;;5012008;28;20471;-77
2023/01/26 04:21:34;;;;;;;13.10;3.70;;;;;;;;;;5012312;28;20600;-76
2023/01/26 04:24:01;;;;;;;14.25;3.45;;;;;;;;;;5011875;28;20025;-76
2023/01/26 04:26:35;;;;;;;26.48;5.10;;;;;;;;;;5011618;28;20076;-77
2023/01/26 04:29:06;;;;;;;13.35;4.03;;;;;;;;;;5011594;28;20106;-77
2023/01/26 04:31:32;;;;;;;6.10;3.50;;;;;;;;;;5011617;28;20050;-78
2023/01/26 04:33:59;;;;;;;12.20;3.65;;;;;;;;;;4993978;28;20026;-78
2023/01/26 04:36:25;;;;;;;9.70;3.78;;;;;;;;;;5011583;28;20025;-77
2023/01/26 04:38:51;;;;;;;16.65;4.13;;;;;;;;;;5011171;28;20046;-77
2023/01/26 04:41:17;;;;;;;13.60;4.50;;;;;;;;;;5011682;28;20109;-77
2023/01/26 04:43:44;;;;;;;15.98;3.58;;;;;;;;;;4994218;28;20121;-77
2023/01/26 04:46:10;;;;;;;28.02;5.03;;;;;;;;;;4994751;28;20045;-76
2023/01/26 04:48:36;;;;;;;19.13;4.95;;;;;;;;;;5012031;28;20033;-76
2023/01/26 04:51:04;;;;;;;14.23;4.68;;;;;;;;;;5012376;28;20091;-77
2023/01/26 04:53:31;;;;;;;14.88;4.70;;;;;;;;;;5012557;28;20722;-77
2023/01/26 04:55:57;;;;;;;14.00;6.10;;;;;;;;;;5013142;28;20122;-77
2023/01/26 04:58:23;;;;;;;14.63;5.07;;;;;;;;;;5021033;28;20030;-77
2023/01/26 05:00:50;;;;;;;18.70;5.38;;;;;;;;;;5033221;28;20401;-76
2023/01/26 05:03:16;;;;;;;14.07;5.30;;;;;;;;;;5015615;28;20057;-76
2023/01/26 05:05:42;;;;;;;22.00;7.18;;;;;;;;;;5021531;28;20022;-76
2023/01/26 05:08:08;;;;;;;13.32;5.57;;;;;;;;;;5011338;28;20033;-77
2023/01/26 05:10:34;;;;;;;21.42;5.88;;;;;;;;;;5015520;28;20030;-77
2023/01/26 05:13:01;;;;;;;17.10;5.78;;;;;;;;;;5016388;28;20379;-77
2023/01/26 05:15:27;;;;;;;23.85;6.80;;;;;;;;;;5016699;28;20397;-76
2023/01/26 05:17:53;;;;;;;16.92;7.30;;;;;;;;;;5016644;28;20057;-77
2023/01/26 05:20:19;;;;;;;20.63;7.40;;;;;;;;;;4997960;28;20162;-75
2023/01/26 05:22:45;;;;;;;20.42;6.85;;;;;;;;;;5015641;28;20057;-76
2023/01/26 05:25:11;;;;;;;16.65;7.80;;;;;;;;;;5015452;28;20635;-76
2023/01/26 05:27:37;;;;;;;15.88;6.38;;;;;;;;;;5015181;28;20033;-77
2023/01/26 05:30:03;;;;;;;18.35;6.97;;;;;;;;;;5015751;28;20108;-77
2023/01/26 05:32:29;;;;;;;21.08;6.95;;;;;;;;;;4998110;28;20356;-78
2023/01/26 05:34:56;;;;;;;25.05;7.53;;;;;;;;;;5015296;28;20030;-78
2023/01/26 05:37:25;;;;;;;20.00;6.50;;;;;;;;;;5014963;28;20026;-77
2023/01/26 05:39:52;;;;;;;21.13;7.18;;;;;;;;;;5014400;28;20046;-77
2023/01/26 05:42:18;;;;;;;21.98;6.55;;;;;;;;;;5014605;28;20364;-76
2023/01/26 05:44:44;;;;;;;20.35;6.60;;;;;;;;;;5014586;28;20033;-77
2023/01/26 05:47:10;;;;;;;16.67;5.97;;;;;;;;;;5014478;28;20033;-75
2023/01/26 05:49:41;;;;;;;14.80;6.68;;;;;;;;;;5014506;28;20022;-76
2023/01/26 05:52:17;;;;;;;11.00;5.53;;;;;;;;;;5014421;28;20030;-77
2023/01/26 05:54:43;;;;;;;21.48;6.35;;;;;;;;;;5014330;28;20399;-76
2023/01/26 05:57:09;;;;;;;14.13;6.35;;;;;;;;;;5014398;28;20084;-77
2023/01/26 05:59:35;;;;;;;16.10;6.38;;;;;;;;;;4996767;28;20038;-78
2023/01/26 06:02:01;;;;;;;22.75;6.63;;;;;;;;;;5014221;28;20032;-77
2023/01/26 06:04:27;;;;;;;14.25;6.53;;;;;;;;;;5014059;28;20116;-77
2023/01/26 06:06:54;;;;;;;16.35;6.40;;;;;;;;;;4996521;28;20054;-77
2023/01/26 06:09:20;;;;;;;23.60;7.60;;;;;;;;;;5014066;28;20116;-77
2023/01/26 06:11:46;;;;;;;18.08;7.20;;;;;;;;;;5014293;28;20033;-75
2023/01/26 06:14:13;;;;;;;12.20;6.25;;;;;;;;;;5014132;28;20105;-75
2023/01/26 06:16:39;;;;;;;20.38;5.57;;;;;;;;;;5008002;28;20038;-75
2023/01/26 06:19:05;;;;;;;27.48;7.30;;;;;;;;;;5005060;28;20031;-76
2023/01/26 06:21:32;;;;;;;13.43;6.10;;;;;;;;;;5004754;28;20034;-73
2023/01/26 06:23:58;;;;;;;24.98;6.05;;;;;;;;;;5004406;28;20019;-74
2023/01/26 06:26:24;;;;;;;16.20;6.35;;;;;;;;;;4977300;28;20073;-75
2023/01/26 06:28:51;;;;;;;16.48;4.97;;;;;;;;;;5013902;28;20029;-75
2023/01/26 06:31:18;;;;;;;18.52;6.25;;;;;;;;;;5013727;28;20018;-75
2023/01/26 06:33:44;;;;;;;14.38;4.82;;;;;;;;;;5013623;28;20579;-75
2023/01/26 06:36:11;;;;;;;26.48;6.07;;;;;;;;;;5013760;28;20029;-76
2023/01/26 06:38:37;;;;;;;32.92;6.15;;;;;;;;;;5013490;28;20403;-74
2023/01/26 06:41:04;;;;;;;14.80;4.75;;;;;;;;;;5014067;28;20379;-76
2023/01/26 06:43:31;;;;;;;15.88;5.30;;;;;;;;;;5013960;28;20026;-74
2023/01/26 06:45:57;;;;;;;14.50;5.28;;;;;;;;;;5013961;28;20030;-75
2023/01/26 06:48:27;;;;;;;23.50;5.15;;;;;;;;;;5012325;28;20025;-74
2023/01/26 06:50:55;;;;;;;17.77;5.30;;;;;;;;;;4999528;28;20109;-74
2023/01/26 06:53:26;;;;;;;17.80;6.03;;;;;;;;;;4994086;28;20379;-75
2023/01/26 06:55:52;;;;;;;23.27;5.65;;;;;;;;;;5012954;28;20434;-75
2023/01/26 06:58:18;;;;;;;10.95;5.07;;;;;;;;;;4995546;28;20562;-74
2023/01/26 07:00:44;;;;;;;14.88;4.43;;;;;;;;;;5012954;28;20365;-75
2023/01/26 07:03:10;;;;;;;16.10;4.65;;;;;;;;;;5014044;28;20061;-75
2023/01/26 07:05:36;;;;;;;16.00;4.03;;;;;;;;;;5015838;28;20037;-75
2023/01/26 07:08:05;;;;;;;17.25;4.65;;;;;;;;;;5020996;28;20025;-76
2023/01/26 07:10:31;;;;;;;12.75;4.03;;;;;;;;;;5011256;28;20029;-74
2023/01/26 07:12:57;;;;;;;13.38;4.45;;;;;;;;;;5014171;28;20022;-74
2023/01/26 07:15:23;;;;;;;20.25;4.50;;;;;;;;;;5012115;28;20061;-76
2023/01/26 07:17:49;;;;;;;19.27;4.90;;;;;;;;;;5010481;28;20042;-74
2023/01/26 07:20:15;;;;;;;16.58;4.07;;;;;;;;;;5012911;28;20025;-75
2023/01/26 07:22:41;;;;;;;17.60;3.42;;;;;;;;;;5013394;28;20521;-76
2023/01/26 07:25:08;;;;;;;12.07;3.05;;;;;;;;;;4994293;28;20065;-77
2023/01/26 07:27:34;;;;;;;15.57;4.00;;;;;;;;;;5012725;28;20045;-76
2023/01/26 07:30:00;;;;;;;17.20;3.40;;;;;;;;;;5012627;28;20056;-77
2023/01/26 07:32:26;;;;;;;16.90;3.55;;;;;;;;;;5010883;28;20049;-76
2023/01/26 07:34:52;;;;;;;14.55;2.78;;;;;;;;;;5012490;28;20026;-76
2023/01/26 07:37:18;;;;;;;18.45;3.65;;;;;;;;;;4994825;28;20028;-75
2023/01/26 07:39:44;;;;;;;7.90;2.72;;;;;;;;;;5011069;28;20124;-76
2023/01/26 07:42:10;;;;;;;15.32;2.90;;;;;;;;;;4994863;28;20030;-76
2023/01/26 07:44:36;;;;;;;19.05;3.67;;;;;;;;;;5011550;28;20065;-75
2023/01/26 07:47:02;;;;;;;17.08;2.78;;;;;;;;;;5012258;28;20096;-76
2023/01/26 07:49:28;;;;;;;16.10;2.65;;;;;;;;;;5012073;28;20463;-76
2023/01/26 07:51:54;;;;;;;14.38;2.78;;;;;;;;;;5011374;28;20475;-75
2023/01/26 07:54:20;;;;;;;15.40;3.95;;;;;;;;;;5012191;28;20399;-80
2023/01/26 07:56:50;;;;;;;11.95;3.13;;;;;;;;;;5013564;28;20030;-75
2023/01/26 07:59:16;;;;;;;10.68;2.42;;;;;;;;;;5011773;28;20030;-75
2023/01/26 08:01:42;;;;;;;18.08;3.50;;;;;;;;;;4994821;28;20046;-77
2023/01/26 08:04:08;;;;;;;15.88;2.60;;;;;;;;;;5009846;28;20035;-77
2023/01/26 08:06:34;;;;;;;9.93;2.53;;;;;;;;;;5014955;28;20042;-77
2023/01/26 08:09:00;;;;;;;20.77;3.10;;;;;;;;;;5014303;28;20040;-75
2023/01/26 08:11:26;;;;;;;16.90;2.42;;;;;;;;;;5025096;28;20095;-76
2023/01/26 08:13:52;;;;;;;17.08;3.03;;;;;;;;;;4998973;28;20026;-75
2023/01/26 08:16:18;;;;;;;14.70;2.72;;;;;;;;;;5010815;28;20021;-75
2023/01/26 08:18:45;;;;;;;12.95;2.97;;;;;;;;;;5016501;28;20055;-77
2023/01/26 08:21:12;;;;;;;10.88;3.20;;;;;;;;;;5014595;28;20505;-76
2023/01/26 08:23:38;;;;;;;16.15;3.22;;;;;;;;;;5015884;28;20025;-75
2023/01/26 08:26:05;;;;;;;16.75;3.42;;;;;;;;;;5012027;28;20096;-76
2023/01/26 08:28:31;;;;;;;13.38;3.00;;;;;;;;;;5011946;28;20030;-76
2023/01/26 08:31:03;;;;;;;14.13;3.10;;;;;;;;;;5011978;28;20025;-76
2023/01/26 08:33:30;;;;;;;15.73;3.22;;;;;;;;;;5012109;28;20030;-77
2023/01/26 08:36:00;;;;;;;11.27;2.63;;;;;;;;;;5011718;28;20026;-77
2023/01/26 08:38:26;;;;;;;13.73;2.80;;;;;;;;;;5011079;28;21394;-78
2023/01/26 08:40:53;;;;;;;10.43;2.85;;;;;;;;;;5011529;28;20026;-76
2023/01/26 08:43:19;;;;;;;13.27;3.17;;;;;;;;;;5011236;28;20021;-76
2023/01/26 08:45:47;;;;;;;14.82;3.30;;;;;;;;;;5011615;28;20026;-77
2023/01/26 08:48:13;;;;;;;15.63;3.15;;;;;;;;;;5011530;28;20105;-75
2023/01/26 08:50:39;;;;;;;9.68;3.03;;;;;;;;;;5011390;28;20659;-77
2023/01/26 08:53:05;;;;;;;17.02;3.08;;;;;;;;;;5011644;28;20095;-78
2023/01/26 08:55:32;;;;;;;13.85;3.17;;;;;;;;;;5011492;28;20487;-77
2023/01/26 08:57:59;;;;;;;16.40;3.20;;;;;;;;;;5011259;28;20040;-77
2023/01/26 09:00:25;;;;;;;10.55;2.53;;;;;;;;;;5011256;28;20086;-77
2023/01/26 09:02:57;;;;;;;16.60;2.92;;;;;;;;;;5011482;28;20073;-78
2023/01/26 09:05:23;;;;;;;;;;;;;;;;;;5012069;28;20486;-77
2023/01/26 09:07:49;;;;;;;16.95;4.53;;;;;;;;;;4993732;28;19968;-76
2023/01/26 09:10:15;;;;;;;16.10;3.50;;;;;;;;;;4993899;28;20030;-77
2023/01/26 09:12:41;;;;;;;16.30;3.50;;;;;;;;;;5011417;28;20100;-76
2023/01/26 09:15:08;;;;;;;15.23;3.50;;;;;;;;;;5012083;28;20475;-75
2023/01/26 09:17:34;;;;;;;17.85;3.55;;;;;;;;;;5011994;28;20034;-76
2023/01/26 09:20:00;;;;;;;14.02;3.28;;;;;;;;;;5011221;28;20025;-75
2023/01/26 09:22:26;;;;;;;9.60;3.10;;;;;;;;;;5011275;28;20061;-76
2023/01/26 09:24:52;;;;;;;16.05;3.20;;;;;;;;;;5010976;28;20025;-75
2023/01/26 09:27:18;;;;;;;12.25;3.03;;;;;;;;;;5010794;28;20029;-76
2023/01/26 09:29:44;;;;;;;8.60;2.65;;;;;;;;;;5011005;28;20025;-76
2023/01/26 09:32:10;;;;;;;8.45;3.00;;;;;;;;;;5011115;28;20080;-76
2023/01/26 09:34:36;;;;;;;17.65;3.08;;;;;;;;;;5010965;28;20053;-77
2023/01/26 09:37:02;;;;;;;10.45;3.40;;;;;;;;;;5011074;28;20033;-75
2023/01/26 09:39:28;;;;;;;12.52;3.15;;;;;;;;;;5010638;28;20132;-75
2023/01/26 09:42:00;;;;;;;15.40;2.78;;;;;;;;;;5011050;28;20471;-77
2023/01/26 09:44:28;;;;;;;11.27;2.95;;;;;;;;;;5010832;28;20067;-77
2023/01/26 09:47:06;;;;;;;11.55;2.80;;;;;;;;;;5011055;28;20097;-77
2023/01/26 09:49:43;;;;;;;15.10;2.80;;;;;;;;;;5011073;28;20026;-77
2023/01/26 09:52:14;;;;;;;11.38;3.00;;;;;;;;;;5010947;28;20033;-78
2023/01/26 09:54:44;;;;;;;10.05;2.97;;;;;;;;;;5011710;28;20030;-77
2023/01/26 09:57:15;;;;;;;12.45;3.72;;;;;;;;;;5014616;28;20033;-78
2023/01/26 09:59:41;;;;;;;14.45;4.32;;;;;;;;;;5014247;28;20037;-77
2023/01/26 10:02:22;;;;;;;13.82;3.88;;;;;;;;;;5014272;28;20161;-78
2023/01/26 10:04:51;;;;;;;10.17;3.60;;;;;;;;;;5014316;28;20052;-77
2023/01/26 10:07:17;;;;;;;10.32;3.35;;;;;;;;;;5014521;28;20026;-76
2023/01/26 10:09:45;;;;;;;11.25;3.83;;;;;;;;;;5014122;28;20042;-77
2023/01/26 10:12:19;;;;;;;11.30;3.97;;;;;;;;;;5014236;28;20495;-77
2023/01/26 10:14:49;;;;;;;10.48;4.38;;;;;;;;;;5014331;28;20026;-76
2023/01/26 10:17:19;;;;;;;12.73;3.72;;;;;;;;;;5014009;28;20018;-74
2023/01/26 10:19:48;;;;;;;10.38;3.88;;;;;;;;;;5014032;28;20030;-77
2023/01/26 10:22:33;;;;;;;13.07;3.92;;;;;;;;;;5014245;28;20119;-76
2023/01/26 10:24:59;;;;;;;14.75;4.53;;;;;;;;;;5013887;28;20030;-76
2023/01/26 10:27:27;;;;;;;13.43;4.03;;;;;;;;;;5013743;28;20105;-77
2023/01/26 10:29:53;;;;;;;8.88;3.90;;;;;;;;;;4996053;28;20026;-76
2023/01/26 10:32:19;;;;;;;19.52;4.53;;;;;;;;;;5013744;28;20026;-76
2023/01/26 10:34:46;;;;;;;10.15;4.03;;;;;;;;;;5013546;28;20112;-75
2023/01/26 10:37:15;;;;;;;9.00;4.55;;;;;;;;;;4996313;28;20184;-76
2023/01/26 10:40:01;;;;;;;16.05;4.07;;;;;;;;;;5013388;28;20523;-77
2023/01/26 10:42:31;;;;;;;12.00;5.30;;;;;;;;;;5013666;28;20022;-75
2023/01/26 10:44:58;;;;;;;11.18;4.30;;;;;;;;;;4995893;28;20038;-75
2023/01/26 10:47:24;;;;;;;9.43;3.53;;;;;;;;;;5013527;28;20022;-75
2023/01/26 10:49:51;;;;;;;12.00;3.75;;;;;;;;;;5013540;28;20364;-76
2023/01/26 10:52:20;;;;;;;9.98;3.28;;;;;;;;;;5013530;28;20489;-76
2023/01/26 10:54:46;;;;;;;12.05;3.45;;;;;;;;;;5013304;28;20132;-77
2023/01/26 10:57:38;;;;;;;7.60;3.40;;;;;;;;;;4995926;28;20061;-76
2023/01/26 11:00:08;;;;;;;12.88;4.07;;;;;;;;;;5014480;28;20430;-77
2023/01/26 11:02:35;;;;;;;10.38;3.38;;;;;;;;;;5018056;28;20021;-76
2023/01/26 11:05:07;;;;;;;11.52;3.58;;;;;;;;;;5013732;28;20083;-78
2023/01/26 11:07:41;;;;;;;12.38;3.83;;;;;;;;;;5012254;28;20026;-77
2023/01/26 11:10:23;;;;;;;14.50;3.40;;;;;;;;;;5013249;28;20474;-77
2023/01/26 11:12:49;;;;;;;9.57;3.60;;;;;;;;;;5035916;28;20033;-78
2023/01/26 11:15:17;;;;;;;13.52;4.13;;;;;;;;;;5026115;28;20085;-76
2023/01/26 11:17:46;;;;;;;8.65;3.72;;;;;;;;;;5017113;28;20032;-77
2023/01/26 11:20:28;;;;;;;11.57;4.00;;;;;;;;;;5018067;28;20148;-76
2023/01/26 11:22:58;;;;;;;9.60;3.63;;;;;;;;;;4995940;28;20037;-76
2023/01/26 11:25:26;;;;;;;12.77;3.60;;;;;;;;;;5013420;28;20041;-77
2023/01/26 11:28:14;;;;;;;13.68;3.83;;;;;;;;;;5012874;28;20128;-77
2023/01/26 11:30:43;;;;;;;12.10;3.47;;;;;;;;;;5013101;28;20026;-78
2023/01/26 11:33:18;;;;;;;13.68;3.88;;;;;;;;;;5013139;28;20018;-77
2023/01/26 11:35:47;;;;;;;8.90;3.60;;;;;;;;;;5012746;28;20049;-78
2023/01/26 11:38:36;;;;;;;8.93;2.85;;;;;;;;;;5012242;28;20049;-77
2023/01/26 11:41:08;;;;;;;8.73;3.80;;;;;;;;;;5012502;28;20388;-78
2023/01/26 11:43:34;;;;;;;;;;;;;;;;;;5013486;28;20080;-80
2023/01/26 11:46:10;;;;;;;12.93;4.00;;;;;;;;;;5012769;28;19988;-80
2023/01/26 11:48:48;;;;;;;11.95;4.15;;;;;;;;;;5012363;28;20049;-78
2023/01/26 11:51:34;;;;;;;7.85;3.25;;;;;;;;;;4994774;28;20022;-78
2023/01/26 11:54:15;;;;;;;11.65;3.65;;;;;;;;;;5012183;28;20030;-78
2023/01/26 11:56:49;;;;;;;5.73;2.53;;;;;;;;;;5012334;28;20030;-78
2023/01/26 11:59:25;;;;;;;8.50;3.47;;;;;;;;;;5012122;28;20042;-78
2023/01/26 12:01:54;;;;;;;13.57;3.15;;;;;;;;;;5012356;28;20037;-77
2023/01/26 12:04:21;;;;;;;7.85;3.63;;;;;;;;;;5012243;28;20022;-78
2023/01/26 12:06:52;;;;;;;12.27;3.65;;;;;;;;;;5012293;28;20032;-78
2023/01/26 12:09:31;;;;;;;9.10;3.35;;;;;;;;;;5012150;28;20025;-78
2023/01/26 12:12:10;;;;;;;8.68;3.40;;;;;;;;;;5012130;28;20526;-78
2023/01/26 12:14:36;;;;;;;15.07;3.30;;;;;;;;;;5012644;28;20510;-78
2023/01/26 12:17:05;;;;;;;10.90;3.33;;;;;;;;;;5012066;28;20048;-79
2023/01/26 12:19:40;;;;;;;9.07;3.08;;;;;;;;;;5011873;28;20497;-78
2023/01/26 12:22:16;;;;;;;8.43;3.00;;;;;;;;;;4994365;28;20030;-78
2023/01/26 12:24:45;;;;;;;14.52;3.33;;;;;;;;;;4993982;28;20386;-78
2023/01/26 12:27:15;;;;;;;13.57;3.03;;;;;;;;;;4994042;28;20482;-78
2023/01/26 12:29:47;;;;;;;8.77;2.60;;;;;;;;;;5011825;28;20033;-77
2023/01/26 12:32:15;;;;;;;6.67;2.63;;;;;;;;;;5011827;28;20108;-76
2023/01/26 12:34:41;;;;;;;8.77;2.65;;;;;;;;;;5011688;28;20335;-78
2023/01/26 12:37:20;;;;;;;7.93;3.00;;;;;;;;;;5011713;28;20612;-76
2023/01/26 12:40:06;;;;;;;7.18;2.70;;;;;;;;;;5011383;28;20061;-77
2023/01/26 12:42:32;;;;;;;6.50;2.53;;;;;;;;;;4962212;28;20069;-76
2023/01/26 12:45:00;;;;;;;9.63;2.90;;;;;;;;;;5011661;28;20517;-78
2023/01/26 12:47:26;;;;;;;7.88;2.75;;;;;;;;;;5011603;28;20021;-78
2023/01/26 12:49:55;;;;;;;9.95;3.10;;;;;;;;;;5011782;28;20025;-79
2023/01/26 12:52:25;;;;;;;8.60;2.92;;;;;;;;;;5011225;28;20033;-78
2023/01/26 12:54:59;;;;;;;11.23;2.63;;;;;;;;;;5011406;28;20018;-78
2023/01/26 12:57:29;;;;;;;9.43;3.03;;;;;;;;;;5011384;28;20033;-78
2023/01/26 13:00:02;;;;;;;9.82;2.78;;;;;;;;;;5011307;28;20087;-80
2023/01/26 13:02:29;;;;;;;6.30;2.08;;;;;;;;;;5011296;28;20572;-77
2023/01/26 13:04:59;;;;;;;8.90;2.50;;;;;;;;;;5011459;28;20034;-79
2023/01/26 13:07:28;;;;;;;8.25;2.35;;;;;;;;;;5011350;28;20037;-78
2023/01/26 13:10:12;;;;;;;5.53;2.03;;;;;;;;;;4993711;28;20081;-80
2023/01/26 13:12:52;;;;;;;6.93;2.88;;;;;;;;;;5011185;28;20022;-79
2023/01/26 13:15:20;;;;;;;13.85;2.88;;;;;;;;;;5011201;28;20026;-79
2023/01/26 13:17:53;;;;;;;9.98;2.88;;;;;;;;;;5012184;28;20379;-79
2023/01/26 13:20:26;;;;;;;10.60;2.22;;;;;;;;;;5012054;28;20030;-78
2023/01/26 13:22:53;;;;;;;6.32;2.10;;;;;;;;;;5011617;28;20022;-79
2023/01/26 13:25:33;;;;;;;8.63;2.28;;;;;;;;;;5011266;28;20030;-79
2023/01/26 13:28:03;;;;;;;4.72;1.42;;;;;;;;;;5011597;28;20026;-78
2023/01/26 13:30:34;;;;;;;5.03;1.88;;;;;;;;;;5013385;28;20025;-78
2023/01/26 13:33:19;;;;;;;4.50;2.08;;;;;;;;;;5015227;28;20161;-78
2023/01/26 13:35:45;;;;;;;8.10;2.80;;;;;;;;;;5014901;28;20030;-78
2023/01/26 13:38:19;;;;;;;7.03;2.25;;;;;;;;;;5014287;28;20167;-77
2023/01/26 13:40:48;;;;;;;5.88;2.03;;;;;;;;;;5014679;28;20113;-79
2023/01/26 13:43:28;;;;;;;4.13;1.50;;;;;;;;;;4997059;28;20030;-79
2023/01/26 13:46:14;;;;;;;9.95;2.15;;;;;;;;;;5014944;28;20375;-79
2023/01/26 13:48:47;;;;;;;5.13;2.00;;;;;;;;;;5014786;28;20018;-78
2023/01/26 13:51:18;;;;;;;7.97;2.28;;;;;;;;;;5014729;28;20060;-79
2023/01/26 13:53:58;;;;;;;7.57;2.10;;;;;;;;;;5015213;28;20040;-80
2023/01/26 13:56:38;;;;;;;5.70;2.20;;;;;;;;;;5014704;28;20181;-79
2023/01/26 13:59:04;;;;;;;8.77;2.38;;;;;;;;;;5014565;28;20076;-78
2023/01/26 14:01:30;;;;;;;7.00;2.60;;;;;;;;;;5014929;28;20025;-78
2023/01/26 14:04:03;;;;;;;9.07;2.47;;;;;;;;;;5001138;28;20544;-79
2023/01/26 14:06:29;;;;;;;10.80;2.40;;;;;;;;;;5019583;28;20538;-79
2023/01/26 14:08:55;;;;;;;5.15;2.58;;;;;;;;;;5016070;28;20026;-78
2023/01/26 14:11:26;;;;;;;9.65;2.65;;;;;;;;;;5014996;28;20022;-77
2023/01/26 14:13:59;;;;;;;9.20;2.38;;;;;;;;;;5015179;28;20029;-79
2023/01/26 14:16:36;;;;;;;5.57;2.17;;;;;;;;;;5014533;28;20104;-78
2023/01/26 14:19:11;;;;;;;9.25;2.47;;;;;;;;;;5014364;28;20034;-77
2023/01/26 14:21:53;;;;;;;9.65;2.90;;;;;;;;;;4996339;28;20058;-76
2023/01/26 14:24:24;;;;;;;10.27;2.72;;;;;;;;;;5014259;28;20088;-77
2023/01/26 14:26:51;;;;;;;8.60;2.10;;;;;;;;;;5014533;28;20025;-77
2023/01/26 14:29:21;;;;;;;11.65;2.45;;;;;;;;;;5014522;28;20156;-79
2023/01/26 14:31:48;;;;;;;11.07;2.85;;;;;;;;;;5014020;28;20022;-78
2023/01/26 14:34:18;;;;;;;9.43;2.25;;;;;;;;;;5013789;28;20494;-79
2023/01/26 14:36:44;;;;;;;7.07;2.40;;;;;;;;;;4996161;28;20026;-78
2023/01/26 14:39:15;;;;;;;10.75;2.63;;;;;;;;;;5013271;28;20057;-77
2023/01/26 14:41:42;;;;;;;6.60;1.70;;;;;;;;;;5013640;28;20479;-77
2023/01/26 14:44:08;;;;;;;15.43;3.75;;;;;;;;;;5013513;28;20474;-76
2023/01/26 14:46:53;;;;;;;11.77;3.78;;;;;;;;;;5013807;28;20022;-79
2023/01/26 14:49:26;;;;;;;9.27;1.88;;;;;;;;;;5013687;28;20030;-78
2023/01/26 14:51:56;;;;;;;12.38;2.47;;;;;;;;;;5013536;28;20033;-78
2023/01/26 14:54:29;;;;;;;11.50;2.38;;;;;;;;;;5013454;28;20030;-77
2023/01/26 14:56:56;;;;;;;10.45;1.80;;;;;;;;;;5013881;28;20505;-77
2023/01/26 14:59:34;;;;;;;6.95;1.98;;;;;;;;;;5013144;28;20113;-77
2023/01/26 15:02:20;;;;;;;25.13;2.65;;;;;;;;;;5013136;28;20109;-77
2023/01/26 15:04:48;;;;;;;9.45;1.80;;;;;;;;;;5013275;28;20033;-77
2023/01/26 15:07:33;;;;;;;9.82;2.30;;;10.30;99.90;;;;;;5013302;28;20034;-78
2023/01/26 15:09:58;;;;;;;14.02;2.80;;;14.00;99.90;;;;;;5012867;28;20065;-76
2023/01/26 15:12:24;;;;;;;12.23;2.95;;;14.70;99.90;;;;;;5013354;28;20108;-77
2023/01/26 15:14:58;;;;;;;13.00;2.05;;;15.60;99.90;;;;;;5013438;28;20058;-77
2023/01/26 15:17:40;;;;;;;8.82;2.00;;;16.20;99.90;;;;;;5012843;28;20032;-77
2023/01/26 15:20:15;;;;;;;10.85;2.05;;;16.80;99.90;;;;;;5013186;28;20482;-77
2023/01/26 15:22:47;;;;;;;8.90;2.15;;;16.90;99.90;;;;;;5013573;28;20030;-76
2023/01/26 15:25:17;;;;;;;10.52;2.13;;;17.20;99.90;;;;;;4995361;28;20391;-80